createdAt,value
2019-03-30T00:02:18.155Z,7.92
2019-03-30T00:04:49.338Z,7.88
2019-03-30T00:07:20.452Z,7.86
2019-03-30T00:09:54.457Z,7.83
2019-03-30T00:12:27.757Z,7.80
2019-03-30T00:14:59.790Z,7.78
2019-03-30T00:17:31.394Z,7.74
2019-03-30T00:20:03.265Z,7.72
2019-03-30T00:22:34.288Z,7.68
2019-03-30T00:25:05.250Z,7.64
2019-03-30T00:27:36.108Z,7.64
2019-03-30T00:30:07.830Z,7.62
2019-03-30T00:32:38.646Z,7.60
2019-03-30T00:35:09.403Z,7.57
2019-03-30T00:37:40.136Z,7.56
2019-03-30T00:40:10.911Z,7.57
2019-03-30T00:42:41.605Z,7.54
2019-03-30T00:45:12.762Z,7.53
2019-03-30T00:47:43.486Z,7.52
2019-03-30T00:50:14.292Z,7.52
2019-03-30T00:52:44.960Z,7.54
2019-03-30T00:55:15.695Z,7.55
2019-03-30T00:57:47.345Z,7.56
2019-03-30T01:00:18.229Z,7.59
2019-03-30T01:02:48.986Z,7.61
2019-03-30T01:05:19.624Z,7.60
2019-03-30T01:07:50.372Z,7.60
2019-03-30T01:10:21.129Z,7.62
2019-03-30T01:12:51.892Z,7.62
2019-03-30T01:15:22.513Z,7.59
2019-03-30T01:17:53.263Z,7.59
2019-03-30T01:20:23.898Z,7.56
2019-03-30T01:22:57.325Z,7.54
2019-03-30T01:25:28.039Z,7.52
2019-03-30T01:27:58.752Z,7.48
2019-03-30T01:30:29.399Z,7.47
2019-03-30T01:33:00.096Z,7.46
2019-03-30T01:35:30.742Z,7.46
2019-03-30T01:38:01.463Z,7.46
2019-03-30T01:40:32.136Z,7.48
2019-03-30T01:43:02.832Z,7.48
2019-03-30T01:45:33.603Z,7.48
2019-03-30T01:48:04.403Z,7.46
2019-03-30T01:50:35.139Z,7.47
2019-03-30T01:53:05.830Z,7.51
2019-03-30T01:55:36.526Z,7.49
2019-03-30T01:58:07.226Z,7.50
2019-03-30T02:00:38.368Z,7.49
2019-03-30T02:03:09.078Z,7.49
2019-03-30T02:05:39.729Z,7.49
2019-03-30T02:08:11.536Z,7.46
2019-03-30T02:10:45.441Z,7.45
2019-03-30T02:13:16.177Z,7.46
2019-03-30T02:15:46.846Z,7.44
2019-03-30T02:18:17.535Z,7.40
2019-03-30T02:20:48.940Z,7.40
2019-03-30T02:23:20.718Z,7.38
2019-03-30T02:25:51.375Z,7.38
2019-03-30T02:28:22.080Z,7.39
2019-03-30T02:30:52.744Z,7.38
2019-03-30T02:33:23.428Z,7.33
2019-03-30T02:35:54.087Z,7.32
2019-03-30T02:38:24.762Z,7.33
2019-03-30T02:40:55.504Z,7.31
2019-03-30T02:43:26.242Z,7.31
2019-03-30T02:45:56.876Z,7.28
2019-03-30T02:48:27.568Z,7.29
2019-03-30T02:50:59.492Z,7.28
2019-03-30T02:53:30.146Z,7.27
2019-03-30T02:56:00.782Z,7.27
2019-03-30T02:58:31.455Z,7.24
2019-03-30T03:01:02.101Z,7.24
2019-03-30T03:03:33.341Z,7.21
2019-03-30T03:06:04.396Z,7.21
2019-03-30T03:08:35.099Z,7.19
2019-03-30T03:11:05.758Z,7.18
2019-03-30T03:13:36.481Z,7.21
2019-03-30T03:16:07.222Z,7.19
2019-03-30T03:18:37.951Z,7.16
2019-03-30T03:21:09.039Z,7.16
2019-03-30T03:23:40.016Z,7.15
2019-03-30T03:26:10.802Z,7.11
2019-03-30T03:28:41.512Z,7.11
2019-03-30T03:31:12.222Z,7.10
2019-03-30T03:33:42.954Z,7.08
2019-03-30T03:36:13.587Z,7.06
2019-03-30T03:38:44.274Z,7.05
2019-03-30T03:41:14.913Z,7.03
2019-03-30T03:43:45.588Z,7.00
2019-03-30T03:46:16.606Z,7.00
2019-03-30T03:48:50.315Z,6.96
2019-03-30T03:51:26.062Z,6.95
2019-03-30T03:53:55.898Z,6.94
2019-03-30T03:56:28.500Z,6.90
2019-03-30T03:59:03.220Z,6.90
2019-03-30T04:01:35.786Z,6.89
2019-03-30T04:04:08.584Z,6.87
2019-03-30T04:06:41.434Z,6.83
2019-03-30T04:09:13.706Z,6.84
2019-03-30T04:11:46.414Z,6.80
2019-03-30T04:14:20.392Z,6.77
2019-03-30T04:16:51.109Z,6.75
2019-03-30T04:19:21.792Z,6.73
2019-03-30T04:21:52.472Z,6.69
2019-03-30T04:24:23.158Z,6.68
2019-03-30T04:26:53.811Z,6.68
2019-03-30T04:29:24.494Z,6.67
2019-03-30T04:31:55.147Z,6.67
2019-03-30T04:34:25.899Z,6.65
2019-03-30T04:36:56.641Z,6.62
2019-03-30T04:39:27.331Z,6.63
2019-03-30T04:41:58.009Z,6.62
2019-03-30T04:44:28.699Z,6.61
2019-03-30T04:46:59.366Z,6.59
2019-03-30T04:49:30.068Z,6.59
2019-03-30T04:52:00.777Z,6.58
2019-03-30T04:54:31.613Z,6.58
2019-03-30T04:57:02.398Z,6.59
2019-03-30T04:59:33.086Z,6.56
2019-03-30T05:02:03.771Z,6.58
2019-03-30T05:04:34.475Z,6.57
2019-03-30T05:07:05.076Z,6.59
2019-03-30T05:09:35.863Z,6.60
2019-03-30T05:12:06.469Z,6.59
2019-03-30T05:14:37.235Z,6.59
2019-03-30T05:17:07.870Z,6.59
2019-03-30T05:19:38.645Z,6.60
2019-03-30T05:22:12.826Z,6.60
2019-03-30T05:24:42.806Z,6.56
2019-03-30T05:27:13.511Z,6.61
2019-03-30T05:29:44.164Z,6.63
2019-03-30T05:32:14.811Z,6.67
2019-03-30T05:34:45.502Z,6.71
2019-03-30T05:37:16.359Z,6.72
2019-03-30T05:39:50.317Z,6.77
2019-03-30T05:42:23.770Z,6.80
2019-03-30T05:44:57.656Z,6.82
2019-03-30T05:47:26.903Z,6.79
2019-03-30T05:49:59.928Z,6.85
2019-03-30T05:52:30.584Z,6.93
2019-03-30T05:55:01.315Z,6.99
2019-03-30T05:57:32.060Z,7.04
2019-03-30T06:00:02.831Z,7.08
2019-03-30T06:02:35.820Z,7.14
2019-03-30T06:05:07.154Z,7.18
2019-03-30T06:07:38.250Z,7.22
2019-03-30T06:10:10.065Z,7.28
2019-03-30T06:12:43.464Z,7.35
2019-03-30T06:15:14.126Z,7.42
2019-03-30T06:17:45.077Z,7.47
2019-03-30T06:20:18.787Z,7.51
2019-03-30T06:22:51.209Z,7.57
2019-03-30T06:25:22.168Z,7.64
2019-03-30T06:27:52.854Z,7.69
2019-03-30T06:30:25.052Z,7.75
2019-03-30T06:32:55.738Z,7.80
2019-03-30T06:35:29.850Z,7.88
2019-03-30T06:38:07.506Z,7.94
2019-03-30T06:40:42.122Z,8.01
2019-03-30T06:43:12.887Z,8.05
2019-03-30T06:45:43.566Z,8.09
2019-03-30T06:48:14.386Z,8.18
2019-03-30T06:50:49.874Z,8.22
2019-03-30T06:53:25.008Z,8.28
2019-03-30T06:55:55.706Z,8.36
2019-03-30T06:58:26.396Z,8.43
2019-03-30T07:00:59.370Z,8.49
2019-03-30T07:03:29.728Z,8.55
2019-03-30T07:06:02.710Z,8.65
2019-03-30T07:08:35.557Z,8.72
2019-03-30T07:11:20.208Z,8.78
2019-03-30T07:13:40.588Z,8.87
2019-03-30T07:16:11.401Z,8.92
2019-03-30T07:18:43.913Z,9.00
2019-03-30T07:21:14.601Z,9.09
2019-03-30T07:23:45.316Z,9.16
2019-03-30T07:26:16.007Z,9.25
2019-03-30T07:28:47.278Z,9.30
2019-03-30T07:31:18.217Z,9.39
2019-03-30T07:33:51.720Z,9.47
2019-03-30T07:36:25.176Z,9.52
2019-03-30T07:38:57.978Z,9.61
2019-03-30T07:41:29.189Z,9.68
2019-03-30T07:43:59.911Z,9.80
2019-03-30T07:46:30.653Z,9.95
2019-03-30T07:49:04.443Z,10.02
2019-03-30T07:51:35.572Z,10.13
2019-03-30T07:54:06.360Z,10.23
2019-03-30T07:56:37.348Z,10.36
2019-03-30T07:59:08.105Z,10.43
2019-03-30T08:01:38.832Z,10.54
2019-03-30T08:04:09.713Z,10.68
2019-03-30T08:06:40.444Z,10.74
2019-03-30T08:09:11.732Z,10.82
2019-03-30T08:11:42.415Z,10.87
2019-03-30T08:14:13.135Z,11.02
2019-03-30T08:16:43.922Z,11.04
2019-03-30T08:19:14.599Z,11.14
2019-03-30T08:21:45.331Z,11.26
2019-03-30T08:24:15.997Z,11.42
2019-03-30T08:26:46.721Z,11.59
2019-03-30T08:29:18.199Z,11.69
2019-03-30T08:31:50.149Z,11.81
2019-03-30T08:34:21.995Z,11.94
2019-03-30T08:36:52.678Z,12.01
2019-03-30T08:39:23.385Z,12.06
2019-03-30T08:41:54.045Z,12.21
2019-03-30T08:44:24.718Z,12.34
2019-03-30T08:46:55.467Z,12.47
2019-03-30T08:49:26.168Z,12.54
2019-03-30T08:51:56.904Z,12.63
2019-03-30T08:54:27.610Z,12.71
2019-03-30T08:56:58.517Z,12.84
2019-03-30T08:59:29.277Z,12.99
2019-03-30T09:02:00.179Z,13.05
2019-03-30T09:04:30.983Z,13.01
2019-03-30T09:07:03.271Z,13.10
2019-03-30T09:09:33.999Z,13.21
2019-03-30T09:12:04.803Z,13.26
2019-03-30T09:14:36.591Z,13.39
2019-03-30T09:17:07.258Z,13.40
2019-03-30T09:19:37.938Z,13.41
2019-03-30T09:22:08.655Z,13.41
2019-03-30T09:24:39.344Z,13.46
2019-03-30T09:27:10.014Z,13.61
2019-03-30T09:29:40.752Z,13.64
2019-03-30T09:32:14.770Z,13.61
2019-03-30T09:34:43.847Z,13.78
2019-03-30T09:37:14.566Z,13.88
2019-03-30T09:39:45.369Z,13.96
2019-03-30T09:42:16.130Z,13.95
2019-03-30T09:44:46.859Z,14.17
2019-03-30T09:47:17.659Z,14.12
2019-03-30T09:49:48.440Z,14.32
2019-03-30T09:52:19.271Z,14.30
2019-03-30T09:54:49.942Z,14.51
2019-03-30T09:57:20.877Z,14.53
2019-03-30T09:59:51.568Z,14.60
2019-03-30T10:02:22.261Z,14.58
2019-03-30T10:04:53.044Z,14.60
2019-03-30T10:07:23.825Z,14.69
2019-03-30T10:09:54.511Z,14.67
2019-03-30T10:12:25.142Z,14.81
2019-03-30T10:14:55.838Z,14.95
2019-03-30T10:17:26.545Z,14.87
2019-03-30T10:20:04.111Z,15.09
2019-03-30T10:22:30.164Z,15.25
2019-03-30T10:25:00.930Z,15.26
2019-03-30T10:27:31.549Z,15.20
2019-03-30T10:30:02.282Z,15.08
2019-03-30T10:32:33.002Z,15.01
2019-03-30T10:35:03.663Z,15.07
2019-03-30T10:37:35.324Z,15.34
2019-03-30T10:40:06.774Z,15.44
2019-03-30T10:42:37.506Z,15.37
2019-03-30T10:45:09.958Z,15.36
2019-03-30T10:47:40.816Z,15.35
2019-03-30T10:50:11.633Z,15.29
2019-03-30T10:52:42.282Z,15.22
2019-03-30T10:55:13.934Z,15.21
2019-03-30T10:57:44.684Z,15.20
2019-03-30T11:00:21.330Z,15.22
2019-03-30T11:02:52.058Z,15.24
2019-03-30T11:05:22.822Z,15.44
2019-03-30T11:07:54.564Z,15.53
2019-03-30T11:10:25.297Z,15.59
2019-03-30T11:12:55.979Z,15.63
2019-03-30T11:15:26.650Z,15.67
2019-03-30T11:17:57.342Z,15.53
2019-03-30T11:20:28.070Z,15.52
2019-03-30T11:22:58.768Z,15.71
2019-03-30T11:25:29.694Z,15.72
2019-03-30T11:28:00.389Z,15.71
2019-03-30T11:30:31.163Z,15.66
2019-03-30T11:33:01.938Z,15.61
2019-03-30T11:35:32.566Z,15.72
2019-03-30T11:38:03.274Z,15.93
2019-03-30T11:40:34.035Z,15.90
2019-03-30T11:43:04.686Z,15.89
2019-03-30T11:45:36.930Z,16.05
2019-03-30T11:48:07.802Z,15.99
2019-03-30T11:50:40.184Z,16.02
2019-03-30T11:53:10.919Z,16.10
2019-03-30T11:55:41.662Z,16.07
2019-03-30T11:58:12.655Z,16.05
2019-03-30T12:00:43.383Z,16.12
2019-03-30T12:03:14.218Z,16.11
2019-03-30T12:05:45.493Z,16.21
2019-03-30T12:08:17.314Z,16.37
2019-03-30T12:10:48.782Z,16.38
2019-03-30T12:13:19.475Z,16.31
2019-03-30T12:15:51.589Z,16.36
2019-03-30T12:18:24.520Z,16.52
2019-03-30T12:20:56.596Z,16.65
2019-03-30T12:23:27.268Z,16.75
2019-03-30T12:25:57.949Z,16.88
2019-03-30T12:28:28.610Z,16.95
2019-03-30T12:31:01.934Z,17.07
2019-03-30T12:33:32.840Z,17.25
2019-03-30T12:36:03.546Z,17.45
2019-03-30T12:38:35.064Z,17.65
2019-03-30T12:41:09.623Z,17.52
2019-03-30T12:43:40.512Z,17.43
2019-03-30T12:46:15.880Z,17.34
2019-03-30T12:48:46.998Z,17.19
2019-03-30T12:51:17.964Z,17.17
2019-03-30T12:53:50.818Z,17.20
2019-03-30T12:56:21.883Z,17.33
2019-03-30T12:58:55.556Z,17.34
2019-03-30T13:01:26.979Z,17.17
2019-03-30T13:03:58.978Z,17.22
2019-03-30T13:06:30.307Z,17.35
2019-03-30T13:09:05.457Z,17.47
2019-03-30T13:11:36.265Z,17.71
2019-03-30T13:14:07.091Z,17.81
2019-03-30T13:16:39.317Z,17.96
2019-03-30T13:19:10.565Z,17.99
2019-03-30T13:21:52.299Z,17.96
2019-03-30T13:24:14.025Z,17.99
2019-03-30T13:26:47.639Z,17.90
2019-03-30T13:29:18.676Z,18.03
2019-03-30T13:31:54.736Z,18.10
2019-03-30T13:34:27.811Z,18.28
2019-03-30T13:36:59.265Z,18.44
2019-03-30T13:39:30.665Z,18.59
2019-03-30T13:42:01.798Z,18.35
2019-03-30T13:44:33.407Z,18.22
2019-03-30T13:47:05.258Z,18.06
2019-03-30T13:49:38.771Z,18.04
2019-03-30T13:52:09.615Z,18.03
2019-03-30T13:54:40.426Z,18.15
2019-03-30T13:57:15.445Z,18.36
2019-03-30T13:59:50.097Z,18.36
2019-03-30T14:02:24.640Z,18.21
2019-03-30T14:04:55.874Z,18.22
2019-03-30T14:07:27.512Z,18.25
2019-03-30T14:09:58.853Z,18.13
2019-03-30T14:12:31.185Z,18.09
2019-03-30T14:15:02.324Z,18.14
2019-03-30T14:17:36.311Z,18.24
2019-03-30T14:20:08.168Z,18.44
2019-03-30T14:22:39.458Z,18.42
2019-03-30T14:25:10.584Z,18.52
2019-03-30T14:27:42.453Z,18.36
2019-03-30T14:30:14.437Z,18.23
2019-03-30T14:32:50.056Z,18.19
2019-03-30T14:35:23.126Z,18.13
2019-03-30T14:37:54.338Z,18.06
2019-03-30T14:40:25.548Z,18.14
2019-03-30T14:42:56.726Z,18.40
2019-03-30T14:45:29.515Z,18.45
2019-03-30T14:48:00.544Z,18.44
2019-03-30T14:50:35.962Z,18.46
2019-03-30T14:53:09.840Z,18.37
2019-03-30T14:55:41.046Z,18.53
2019-03-30T14:58:18.963Z,18.58
2019-03-30T15:00:48.393Z,18.64
2019-03-30T15:03:19.371Z,18.52
2019-03-30T15:05:50.453Z,18.50
2019-03-30T15:08:26.056Z,18.63
2019-03-30T15:10:59.456Z,18.71
2019-03-30T15:13:30.490Z,18.70
2019-03-30T15:16:01.484Z,18.54
2019-03-30T15:18:33.839Z,18.51
2019-03-30T15:21:09.477Z,18.51
2019-03-30T15:23:40.589Z,18.54
2019-03-30T15:26:11.752Z,18.44
2019-03-30T15:28:44.401Z,18.30
2019-03-30T15:31:15.469Z,18.33
2019-03-30T15:33:53.559Z,18.41
2019-03-30T15:36:26.464Z,18.59
2019-03-30T15:38:58.246Z,18.44
2019-03-30T15:41:32.219Z,18.31
2019-03-30T15:44:05.057Z,18.24
2019-03-30T15:46:36.819Z,18.20
2019-03-30T15:49:09.804Z,18.17
2019-03-30T15:51:41.870Z,18.19
2019-03-30T15:54:12.847Z,18.14
2019-03-30T15:56:47.655Z,18.04
2019-03-30T15:59:18.778Z,17.89
2019-03-30T16:01:49.767Z,17.83
2019-03-30T16:04:20.685Z,17.79
2019-03-30T16:06:51.675Z,17.78
2019-03-30T16:09:23.226Z,17.78
2019-03-30T16:11:54.134Z,17.74
2019-03-30T16:14:25.258Z,18.11
2019-03-30T16:16:56.115Z,18.51
2019-03-30T16:19:27.139Z,18.26
2019-03-30T16:21:58.374Z,18.22
2019-03-30T16:24:30.191Z,18.39
2019-03-30T16:27:03.378Z,18.20
2019-03-30T16:29:34.507Z,17.83
2019-03-30T16:32:05.510Z,17.48
2019-03-30T16:34:36.536Z,17.68
2019-03-30T16:37:07.739Z,17.92
2019-03-30T16:39:38.800Z,18.01
2019-03-30T16:42:12.321Z,17.97
2019-03-30T16:44:44.081Z,17.98
2019-03-30T16:47:15.035Z,18.04
2019-03-30T16:49:46.082Z,18.13
2019-03-30T16:52:17.563Z,18.29
2019-03-30T16:54:50.653Z,18.39
2019-03-30T16:57:22.683Z,18.47
2019-03-30T16:59:54.067Z,18.33
2019-03-30T17:02:26.454Z,17.98
2019-03-30T17:04:57.441Z,17.76
2019-03-30T17:07:28.407Z,17.69
2019-03-30T17:09:59.241Z,17.62
2019-03-30T17:12:30.163Z,17.51
2019-03-30T17:15:01.091Z,17.13
2019-03-30T17:17:32.325Z,16.94
2019-03-30T17:20:05.105Z,16.78
2019-03-30T17:22:36.106Z,16.58
2019-03-30T17:25:08.195Z,16.42
2019-03-30T17:27:39.275Z,16.29
2019-03-30T17:30:10.698Z,16.17
2019-03-30T17:32:41.787Z,16.07
2019-03-30T17:35:12.513Z,16.01
2019-03-30T17:37:44.609Z,15.87
2019-03-30T17:40:15.659Z,15.78
2019-03-30T17:42:46.625Z,15.69
2019-03-30T17:45:17.855Z,15.59
2019-03-30T17:47:48.838Z,15.53
2019-03-30T17:50:19.964Z,15.49
2019-03-30T17:52:51.404Z,15.37
2019-03-30T17:55:34.104Z,15.29
2019-03-30T17:58:12.962Z,15.21
2019-03-30T18:00:35.653Z,15.13
2019-03-30T18:03:07.461Z,15.06
2019-03-30T18:05:39.956Z,14.96
2019-03-30T18:08:12.075Z,14.90
2019-03-30T18:10:43.035Z,14.87
2019-03-30T18:13:14.575Z,14.84
2019-03-30T18:15:45.370Z,14.76
2019-03-30T18:18:18.316Z,14.66
2019-03-30T18:20:49.051Z,14.67
2019-03-30T18:23:19.890Z,14.64
2019-03-30T18:25:50.641Z,14.56
2019-03-30T18:28:27.256Z,14.50
2019-03-30T18:30:56.122Z,14.41
2019-03-30T18:33:27.173Z,14.33
2019-03-30T18:35:58.584Z,14.24
2019-03-30T18:38:29.944Z,14.17
2019-03-30T18:41:00.819Z,14.09
2019-03-30T18:43:31.958Z,14.02
2019-03-30T18:46:02.987Z,13.93
2019-03-30T18:48:35.722Z,13.85
2019-03-30T18:51:10.148Z,13.80
2019-03-30T18:53:41.336Z,13.70
2019-03-30T18:56:12.342Z,13.67
2019-03-30T18:58:44.686Z,13.63
2019-03-30T19:01:15.471Z,13.53
2019-03-30T19:03:47.041Z,13.49
2019-03-30T19:06:18.231Z,13.46
2019-03-30T19:08:49.205Z,13.38
2019-03-30T19:11:20.274Z,13.32
2019-03-30T19:13:51.640Z,13.26
2019-03-30T19:16:22.661Z,13.19
2019-03-30T19:18:53.980Z,13.15
2019-03-30T19:21:24.912Z,13.13
2019-03-30T19:23:55.840Z,13.11
2019-03-30T19:26:26.728Z,13.04
2019-03-30T19:29:01.605Z,13.01
2019-03-30T19:31:40.376Z,12.97
2019-03-30T19:34:12.034Z,12.95
2019-03-30T19:36:43.099Z,12.91
2019-03-30T19:39:14.282Z,12.90
2019-03-30T19:41:45.632Z,12.86
2019-03-30T19:44:17.028Z,12.82
2019-03-30T19:46:48.952Z,12.80
2019-03-30T19:49:36.636Z,12.77
2019-03-30T19:52:20.633Z,12.71
2019-03-30T19:54:58.169Z,12.67
2019-03-30T19:58:00.617Z,12.65
2019-03-30T20:00:52.490Z,12.60
2019-03-30T20:03:34.384Z,12.53
2019-03-30T20:06:21.435Z,12.50
2019-03-30T20:09:03.246Z,12.46
2019-03-30T20:11:36.910Z,12.46
2019-03-30T20:14:09.266Z,12.43
2019-03-30T20:16:44.545Z,12.36
2019-03-30T20:19:17.421Z,12.32
2019-03-30T20:21:57.299Z,12.23
2019-03-30T20:24:39.149Z,12.20
2019-03-30T20:27:22.971Z,12.36
2019-03-30T20:29:59.151Z,12.44
2019-03-30T20:32:29.861Z,12.47
2019-03-30T20:35:00.675Z,12.40
2019-03-30T20:37:31.560Z,12.36
2019-03-30T20:40:02.424Z,12.30
2019-03-30T20:42:35.536Z,12.27
2019-03-30T20:45:08.066Z,12.24
2019-03-30T20:47:44.342Z,12.15
2019-03-30T20:50:17.034Z,12.14
2019-03-30T20:52:47.777Z,12.10
2019-03-30T20:55:18.506Z,12.04
2019-03-30T20:57:49.210Z,12.01
2019-03-30T21:00:20.370Z,11.99
2019-03-30T21:02:51.221Z,11.93
2019-03-30T21:05:25.035Z,11.89
2019-03-30T21:07:55.872Z,11.89
2019-03-30T21:10:26.856Z,11.91
2019-03-30T21:12:57.540Z,11.87
2019-03-30T21:15:28.492Z,11.87
2019-03-30T21:18:09.084Z,11.79
2019-03-30T21:20:44.543Z,11.70
2019-03-30T21:23:15.333Z,11.59
2019-03-30T21:25:46.060Z,11.60
2019-03-30T21:28:25.121Z,11.55
2019-03-30T21:30:58.671Z,11.49
2019-03-30T21:33:29.499Z,11.50
2019-03-30T21:36:00.335Z,11.44
2019-03-30T21:38:33.391Z,11.41
2019-03-30T21:41:04.831Z,11.30
2019-03-30T21:43:37.381Z,11.27
2019-03-30T21:46:14.038Z,11.28
2019-03-30T21:48:46.802Z,11.23
2019-03-30T21:51:18.002Z,11.18
2019-03-30T21:53:49.990Z,11.27
2019-03-30T21:56:21.611Z,11.30
2019-03-30T21:58:54.033Z,11.23
2019-03-30T22:01:25.873Z,11.17
2019-03-30T22:03:57.046Z,11.14
2019-03-30T22:06:28.399Z,11.11
2019-03-30T22:09:00.652Z,10.99
2019-03-30T22:11:36.158Z,10.93
2019-03-30T22:14:07.926Z,10.86
2019-03-30T22:16:39.309Z,10.84
2019-03-30T22:19:12.525Z,10.77
2019-03-30T22:21:46.475Z,10.73
2019-03-30T22:24:17.921Z,10.69
2019-03-30T22:26:51.903Z,10.67
2019-03-30T22:29:35.715Z,10.64
2019-03-30T22:32:08.943Z,10.60
2019-03-30T22:34:43.628Z,10.57
2019-03-30T22:37:16.655Z,10.55
2019-03-30T22:39:50.591Z,10.54
2019-03-30T22:42:28.070Z,10.59
2019-03-30T22:45:00.505Z,10.56
2019-03-30T22:47:31.876Z,10.51
2019-03-30T22:50:06.511Z,10.47
2019-03-30T22:52:39.157Z,10.40
2019-03-30T22:55:13.145Z,10.36
2019-03-30T22:57:46.277Z,10.29
2019-03-30T23:00:39.621Z,10.25
2019-03-30T23:03:15.874Z,10.19
2019-03-30T23:05:48.985Z,10.17
2019-03-30T23:08:19.750Z,10.16
2019-03-30T23:10:58.251Z,10.14
2019-03-30T23:13:28.998Z,10.11
2019-03-30T23:15:59.862Z,10.02
2019-03-30T23:18:32.960Z,10.00
2019-03-30T23:21:03.721Z,9.95
2019-03-30T23:23:34.379Z,9.93
2019-03-30T23:26:05.111Z,9.90
2019-03-30T23:28:36.088Z,9.88
2019-03-30T23:31:06.856Z,9.84
2019-03-30T23:33:37.612Z,9.77
2019-03-30T23:36:08.503Z,9.72
2019-03-30T23:38:39.447Z,9.78
2019-03-30T23:41:10.130Z,9.75
2019-03-30T23:43:41.338Z,9.69
2019-03-30T23:46:14.742Z,9.65
2019-03-30T23:48:45.571Z,9.60
2019-03-30T23:51:19.465Z,9.67
2019-03-30T23:53:51.262Z,9.66
2019-03-30T23:56:24.962Z,9.71
2019-03-30T23:58:55.838Z,9.77
